sensor_id;sensor_type;location;lat;lon;timestamp;P1;durP1;ratioP1;P2;durP2;ratioP2
21798;SDS011;24973;47.178;15.316;2022-09-28T00:01:57;0.67;;;0.67;;
21798;SDS011;24973;47.178;15.316;2022-09-28T00:04:46;0.70;;;0.70;;
21798;SDS011;24973;47.178;15.316;2022-09-28T00:07:35;0.53;;;0.53;;
21798;SDS011;24973;47.178;15.316;2022-09-28T00:10:24;1.40;;;1.03;;
21798;SDS011;24973;47.178;15.316;2022-09-28T00:13:13;4.03;;;0.80;;
21798;SDS011;24973;47.178;15.316;2022-09-28T00:16:04;0.67;;;0.60;;
21798;SDS011;24973;47.178;15.316;2022-09-28T00:18:55;1.60;;;0.80;;
21798;SDS011;24973;47.178;15.316;2022-09-28T00:21:45;0.60;;;0.60;;
21798;SDS011;24973;47.178;15.316;2022-09-28T00:24:34;0.80;;;0.80;;
21798;SDS011;24973;47.178;15.316;2022-09-28T00:27:22;0.70;;;0.70;;
21798;SDS011;24973;47.178;15.316;2022-09-28T00:30:11;0.80;;;0.80;;
21798;SDS011;24973;47.178;15.316;2022-09-28T00:33:03;0.80;;;0.80;;
21798;SDS011;24973;47.178;15.316;2022-09-28T00:35:55;0.60;;;0.60;;
21798;SDS011;24973;47.178;15.316;2022-09-28T00:38:45;1.50;;;0.73;;
21798;SDS011;24973;47.178;15.316;2022-09-28T00:41:34;0.70;;;0.60;;
21798;SDS011;24973;47.178;15.316;2022-09-28T00:44:37;2.10;;;0.80;;
21798;SDS011;24973;47.178;15.316;2022-09-28T00:47:44;2.87;;;0.60;;
21798;SDS011;24973;47.178;15.316;2022-09-28T00:50:39;0.77;;;0.77;;
21798;SDS011;24973;47.178;15.316;2022-09-28T00:53:28;0.60;;;0.60;;
21798;SDS011;24973;47.178;15.316;2022-09-28T00:56:21;0.50;;;0.50;;
21798;SDS011;24973;47.178;15.316;2022-09-28T00:59:14;3.60;;;0.63;;
21798;SDS011;24973;47.178;15.316;2022-09-28T01:02:03;0.60;;;0.60;;
21798;SDS011;24973;47.178;15.316;2022-09-28T01:04:52;0.80;;;0.80;;
21798;SDS011;24973;47.178;15.316;2022-09-28T01:07:44;0.57;;;0.57;;
21798;SDS011;24973;47.178;15.316;2022-09-28T01:10:34;0.70;;;0.70;;
21798;SDS011;24973;47.178;15.316;2022-09-28T01:13:23;2.00;;;0.47;;
21798;SDS011;24973;47.178;15.316;2022-09-28T01:16:18;0.60;;;0.60;;
21798;SDS011;24973;47.178;15.316;2022-09-28T01:19:18;2.97;;;0.80;;
21798;SDS011;24973;47.178;15.316;2022-09-28T01:22:30;0.93;;;0.73;;
21798;SDS011;24973;47.178;15.316;2022-09-28T01:25:39;1.40;;;0.97;;
21798;SDS011;24973;47.178;15.316;2022-09-28T01:28:34;0.60;;;0.60;;
21798;SDS011;24973;47.178;15.316;2022-09-28T01:31:24;0.70;;;0.70;;
21798;SDS011;24973;47.178;15.316;2022-09-28T01:34:17;0.83;;;0.80;;
21798;SDS011;24973;47.178;15.316;2022-09-28T01:37:16;1.10;;;0.70;;
21798;SDS011;24973;47.178;15.316;2022-09-28T01:40:08;1.00;;;0.90;;
21798;SDS011;24973;47.178;15.316;2022-09-28T01:43:00;0.90;;;0.83;;
21798;SDS011;24973;47.178;15.316;2022-09-28T01:45:54;3.30;;;0.83;;
21798;SDS011;24973;47.178;15.316;2022-09-28T01:48:49;2.87;;;0.87;;
21798;SDS011;24973;47.178;15.316;2022-09-28T01:51:42;0.90;;;0.90;;
21798;SDS011;24973;47.178;15.316;2022-09-28T01:54:37;0.90;;;0.90;;
21798;SDS011;24973;47.178;15.316;2022-09-28T01:57:32;1.10;;;0.80;;
21798;SDS011;24973;47.178;15.316;2022-09-28T02:00:26;1.53;;;0.90;;
21798;SDS011;24973;47.178;15.316;2022-09-28T02:03:17;1.10;;;1.00;;
21798;SDS011;24973;47.178;15.316;2022-09-28T02:06:12;2.37;;;0.80;;
21798;SDS011;24973;47.178;15.316;2022-09-28T02:09:07;1.03;;;0.90;;
21798;SDS011;24973;47.178;15.316;2022-09-28T02:12:00;0.70;;;0.70;;
21798;SDS011;24973;47.178;15.316;2022-09-28T02:14:57;0.83;;;0.73;;
21798;SDS011;24973;47.178;15.316;2022-09-28T02:17:56;1.30;;;1.17;;
21798;SDS011;24973;47.178;15.316;2022-09-28T02:20:47;0.77;;;0.77;;
21798;SDS011;24973;47.178;15.316;2022-09-28T02:23:43;0.70;;;0.70;;
21798;SDS011;24973;47.178;15.316;2022-09-28T02:26:41;1.43;;;1.00;;
21798;SDS011;24973;47.178;15.316;2022-09-28T02:29:32;0.60;;;0.60;;
21798;SDS011;24973;47.178;15.316;2022-09-28T02:32:21;1.13;;;0.80;;
21798;SDS011;24973;47.178;15.316;2022-09-28T02:35:13;2.57;;;1.20;;
21798;SDS011;24973;47.178;15.316;2022-09-28T02:38:06;1.67;;;1.03;;
21798;SDS011;24973;47.178;15.316;2022-09-28T02:40:56;1.87;;;1.10;;
21798;SDS011;24973;47.178;15.316;2022-09-28T02:43:52;1.53;;;1.10;;
21798;SDS011;24973;47.178;15.316;2022-09-28T02:46:51;2.23;;;0.80;;
21798;SDS011;24973;47.178;15.316;2022-09-28T02:49:48;0.70;;;0.70;;
21798;SDS011;24973;47.178;15.316;2022-09-28T02:52:47;6.33;;;0.90;;
21798;SDS011;24973;47.178;15.316;2022-09-28T02:56:03;0.60;;;0.60;;
21798;SDS011;24973;47.178;15.316;2022-09-28T02:59:31;0.80;;;0.80;;
21798;SDS011;24973;47.178;15.316;2022-09-28T03:02:35;0.50;;;0.50;;
21798;SDS011;24973;47.178;15.316;2022-09-28T03:05:36;1.17;;;0.93;;
21798;SDS011;24973;47.178;15.316;2022-09-28T03:08:36;0.50;;;0.43;;
21798;SDS011;24973;47.178;15.316;2022-09-28T03:11:30;0.60;;;0.60;;
21798;SDS011;24973;47.178;15.316;2022-09-28T03:14:24;0.50;;;0.50;;
21798;SDS011;24973;47.178;15.316;2022-09-28T03:17:13;0.67;;;0.60;;
21798;SDS011;24973;47.178;15.316;2022-09-28T03:20:02;1.07;;;0.97;;
21798;SDS011;24973;47.178;15.316;2022-09-28T03:22:51;1.00;;;0.90;;
21798;SDS011;24973;47.178;15.316;2022-09-28T03:25:59;0.60;;;0.60;;
21798;SDS011;24973;47.178;15.316;2022-09-28T03:28:48;0.80;;;0.80;;
21798;SDS011;24973;47.178;15.316;2022-09-28T03:31:36;2.60;;;0.80;;
21798;SDS011;24973;47.178;15.316;2022-09-28T03:34:25;0.83;;;0.80;;
21798;SDS011;24973;47.178;15.316;2022-09-28T03:37:14;4.47;;;1.10;;
21798;SDS011;24973;47.178;15.316;2022-09-28T03:40:03;4.20;;;1.10;;
21798;SDS011;24973;47.178;15.316;2022-09-28T03:42:54;0.70;;;0.70;;
21798;SDS011;24973;47.178;15.316;2022-09-28T03:45:49;2.00;;;1.23;;
21798;SDS011;24973;47.178;15.316;2022-09-28T03:48:40;2.80;;;0.87;;
21798;SDS011;24973;47.178;15.316;2022-09-28T03:51:28;2.73;;;0.70;;
21798;SDS011;24973;47.178;15.316;2022-09-28T03:54:17;0.77;;;0.70;;
21798;SDS011;24973;47.178;15.316;2022-09-28T03:57:06;0.80;;;0.80;;
21798;SDS011;24973;47.178;15.316;2022-09-28T03:59:56;0.97;;;0.80;;
21798;SDS011;24973;47.178;15.316;2022-09-28T04:02:45;1.47;;;1.37;;
21798;SDS011;24973;47.178;15.316;2022-09-28T04:05:34;0.90;;;0.90;;
21798;SDS011;24973;47.178;15.316;2022-09-28T04:08:22;0.90;;;0.90;;
21798;SDS011;24973;47.178;15.316;2022-09-28T04:11:11;1.57;;;0.97;;
21798;SDS011;24973;47.178;15.316;2022-09-28T04:14:00;0.67;;;0.60;;
21798;SDS011;24973;47.178;15.316;2022-09-28T04:16:50;1.87;;;1.30;;
21798;SDS011;24973;47.178;15.316;2022-09-28T04:19:40;1.10;;;1.03;;
21798;SDS011;24973;47.178;15.316;2022-09-28T04:22:29;2.00;;;0.77;;
21798;SDS011;24973;47.178;15.316;2022-09-28T04:25:18;0.80;;;0.80;;
21798;SDS011;24973;47.178;15.316;2022-09-28T04:28:07;0.80;;;0.80;;
21798;SDS011;24973;47.178;15.316;2022-09-28T04:31:15;1.20;;;1.10;;
21798;SDS011;24973;47.178;15.316;2022-09-28T04:34:07;1.60;;;0.93;;
21798;SDS011;24973;47.178;15.316;2022-09-28T04:36:57;0.73;;;0.73;;
21798;SDS011;24973;47.178;15.316;2022-09-28T04:39:45;2.83;;;1.03;;
21798;SDS011;24973;47.178;15.316;2022-09-28T04:42:34;3.30;;;1.00;;
21798;SDS011;24973;47.178;15.316;2022-09-28T04:45:23;1.00;;;1.00;;
21798;SDS011;24973;47.178;15.316;2022-09-28T04:48:12;0.90;;;0.90;;
21798;SDS011;24973;47.178;15.316;2022-09-28T04:51:02;1.40;;;1.10;;
21798;SDS011;24973;47.178;15.316;2022-09-28T04:53:52;7.37;;;1.60;;
21798;SDS011;24973;47.178;15.316;2022-09-28T04:56:42;2.70;;;2.50;;
21798;SDS011;24973;47.178;15.316;2022-09-28T04:59:30;1.57;;;1.47;;
21798;SDS011;24973;47.178;15.316;2022-09-28T05:02:19;1.10;;;1.00;;
21798;SDS011;24973;47.178;15.316;2022-09-28T05:05:08;1.20;;;1.20;;
21798;SDS011;24973;47.178;15.316;2022-09-28T05:07:58;1.33;;;1.23;;
21798;SDS011;24973;47.178;15.316;2022-09-28T05:10:47;2.10;;;1.90;;
21798;SDS011;24973;47.178;15.316;2022-09-28T05:13:43;2.50;;;2.40;;
21798;SDS011;24973;47.178;15.316;2022-09-28T05:16:34;1.00;;;1.00;;
21798;SDS011;24973;47.178;15.316;2022-09-28T05:19:22;2.60;;;1.43;;
21798;SDS011;24973;47.178;15.316;2022-09-28T05:22:12;1.00;;;1.00;;
21798;SDS011;24973;47.178;15.316;2022-09-28T05:25:02;1.20;;;0.90;;
21798;SDS011;24973;47.178;15.316;2022-09-28T05:27:53;1.50;;;0.73;;
21798;SDS011;24973;47.178;15.316;2022-09-28T05:30:42;0.60;;;0.60;;
21798;SDS011;24973;47.178;15.316;2022-09-28T05:33:31;0.70;;;0.70;;
21798;SDS011;24973;47.178;15.316;2022-09-28T05:36:20;1.00;;;1.00;;
21798;SDS011;24973;47.178;15.316;2022-09-28T05:39:10;3.57;;;3.27;;
21798;SDS011;24973;47.178;15.316;2022-09-28T05:42:00;1.40;;;1.30;;
21798;SDS011;24973;47.178;15.316;2022-09-28T05:44:48;0.73;;;0.73;;
21798;SDS011;24973;47.178;15.316;2022-09-28T05:47:37;0.90;;;0.90;;
21798;SDS011;24973;47.178;15.316;2022-09-28T05:50:27;1.20;;;1.10;;
21798;SDS011;24973;47.178;15.316;2022-09-28T05:53:16;3.57;;;0.83;;
21798;SDS011;24973;47.178;15.316;2022-09-28T05:56:05;1.10;;;1.00;;
21798;SDS011;24973;47.178;15.316;2022-09-28T05:58:55;2.60;;;1.10;;
21798;SDS011;24973;47.178;15.316;2022-09-28T06:01:45;1.60;;;0.93;;
21798;SDS011;24973;47.178;15.316;2022-09-28T06:04:33;3.33;;;1.37;;
21798;SDS011;24973;47.178;15.316;2022-09-28T06:07:22;1.20;;;0.97;;
21798;SDS011;24973;47.178;15.316;2022-09-28T06:10:11;1.13;;;1.13;;
21798;SDS011;24973;47.178;15.316;2022-09-28T06:13:00;4.87;;;1.50;;
21798;SDS011;24973;47.178;15.316;2022-09-28T06:15:50;2.90;;;1.60;;
21798;SDS011;24973;47.178;15.316;2022-09-28T06:18:39;1.63;;;1.53;;
21798;SDS011;24973;47.178;15.316;2022-09-28T06:21:28;7.27;;;2.30;;
21798;SDS011;24973;47.178;15.316;2022-09-28T06:24:16;2.00;;;1.87;;
21798;SDS011;24973;47.178;15.316;2022-09-28T06:27:05;3.67;;;2.00;;
21798;SDS011;24973;47.178;15.316;2022-09-28T06:29:54;1.63;;;1.27;;
21798;SDS011;24973;47.178;15.316;2022-09-28T06:32:44;1.60;;;1.50;;
21798;SDS011;24973;47.178;15.316;2022-09-28T06:35:32;3.87;;;2.23;;
21798;SDS011;24973;47.178;15.316;2022-09-28T06:38:21;2.90;;;2.03;;
21798;SDS011;24973;47.178;15.316;2022-09-28T06:41:10;4.07;;;1.83;;
21798;SDS011;24973;47.178;15.316;2022-09-28T06:43:59;2.93;;;2.30;;
21798;SDS011;24973;47.178;15.316;2022-09-28T06:46:49;1.93;;;1.70;;
21798;SDS011;24973;47.178;15.316;2022-09-28T06:49:40;3.30;;;2.10;;
21798;SDS011;24973;47.178;15.316;2022-09-28T06:52:29;2.37;;;1.80;;
21798;SDS011;24973;47.178;15.316;2022-09-28T06:55:17;2.23;;;2.03;;
21798;SDS011;24973;47.178;15.316;2022-09-28T06:58:08;3.83;;;2.70;;
21798;SDS011;24973;47.178;15.316;2022-09-28T07:00:58;2.87;;;2.63;;
21798;SDS011;24973;47.178;15.316;2022-09-28T07:03:47;4.43;;;3.33;;
21798;SDS011;24973;47.178;15.316;2022-09-28T07:06:39;2.83;;;2.60;;
21798;SDS011;24973;47.178;15.316;2022-09-28T07:09:34;6.23;;;3.47;;
21798;SDS011;24973;47.178;15.316;2022-09-28T07:12:25;11.20;;;3.53;;
21798;SDS011;24973;47.178;15.316;2022-09-28T07:15:14;6.03;;;4.20;;
21798;SDS011;24973;47.178;15.316;2022-09-28T07:18:03;4.83;;;3.83;;
21798;SDS011;24973;47.178;15.316;2022-09-28T07:20:54;5.10;;;3.70;;
21798;SDS011;24973;47.178;15.316;2022-09-28T07:23:45;8.00;;;4.85;;
21798;SDS011;24973;47.178;15.316;2022-09-28T07:26:38;10.40;;;4.80;;
21798;SDS011;24973;47.178;15.316;2022-09-28T07:29:27;4.63;;;4.17;;
21798;SDS011;24973;47.178;15.316;2022-09-28T07:32:16;4.70;;;4.03;;
21798;SDS011;24973;47.178;15.316;2022-09-28T07:35:05;4.53;;;3.53;;
21798;SDS011;24973;47.178;15.316;2022-09-28T07:37:57;5.07;;;3.83;;
21798;SDS011;24973;47.178;15.316;2022-09-28T07:40:49;5.13;;;3.60;;
21798;SDS011;24973;47.178;15.316;2022-09-28T07:43:55;4.83;;;3.47;;
21798;SDS011;24973;47.178;15.316;2022-09-28T07:46:44;4.20;;;3.90;;
21798;SDS011;24973;47.178;15.316;2022-09-28T07:49:33;4.27;;;3.50;;
21798;SDS011;24973;47.178;15.316;2022-09-28T07:52:22;6.43;;;4.20;;
21798;SDS011;24973;47.178;15.316;2022-09-28T07:55:11;4.07;;;3.37;;
21798;SDS011;24973;47.178;15.316;2022-09-28T07:58:02;6.07;;;3.70;;
21798;SDS011;24973;47.178;15.316;2022-09-28T08:00:50;7.03;;;3.17;;
21798;SDS011;24973;47.178;15.316;2022-09-28T08:03:39;6.50;;;3.67;;
21798;SDS011;24973;47.178;15.316;2022-09-28T08:06:30;4.57;;;2.77;;
21798;SDS011;24973;47.178;15.316;2022-09-28T08:09:19;5.30;;;3.33;;
21798;SDS011;24973;47.178;15.316;2022-09-28T08:12:08;4.00;;;2.60;;
21798;SDS011;24973;47.178;15.316;2022-09-28T08:14:59;4.03;;;2.47;;
21798;SDS011;24973;47.178;15.316;2022-09-28T08:17:48;3.17;;;2.00;;
21798;SDS011;24973;47.178;15.316;2022-09-28T08:20:36;3.23;;;2.07;;
21798;SDS011;24973;47.178;15.316;2022-09-28T08:23:43;5.13;;;2.10;;
21798;SDS011;24973;47.178;15.316;2022-09-28T08:26:31;4.57;;;2.17;;
21798;SDS011;24973;47.178;15.316;2022-09-28T08:29:20;8.37;;;2.10;;
21798;SDS011;24973;47.178;15.316;2022-09-28T08:32:10;2.47;;;2.27;;
21798;SDS011;24973;47.178;15.316;2022-09-28T08:34:59;3.87;;;1.77;;
21798;SDS011;24973;47.178;15.316;2022-09-28T08:37:48;2.60;;;2.00;;
21798;SDS011;24973;47.178;15.316;2022-09-28T08:40:43;1.97;;;1.77;;
21798;SDS011;24973;47.178;15.316;2022-09-28T08:43:44;4.50;;;2.00;;
21798;SDS011;24973;47.178;15.316;2022-09-28T08:46:44;3.10;;;1.90;;
21798;SDS011;24973;47.178;15.316;2022-09-28T08:49:37;1.90;;;1.60;;
21798;SDS011;24973;47.178;15.316;2022-09-28T08:52:32;2.00;;;1.70;;
21798;SDS011;24973;47.178;15.316;2022-09-28T08:55:27;2.00;;;1.80;;
21798;SDS011;24973;47.178;15.316;2022-09-28T08:58:19;1.60;;;1.47;;
21798;SDS011;24973;47.178;15.316;2022-09-28T09:01:13;1.73;;;1.50;;
21798;SDS011;24973;47.178;15.316;2022-09-28T09:04:06;3.47;;;1.70;;
21798;SDS011;24973;47.178;15.316;2022-09-28T09:07:07;2.30;;;2.10;;
21798;SDS011;24973;47.178;15.316;2022-09-28T09:10:18;1.57;;;1.30;;
21798;SDS011;24973;47.178;15.316;2022-09-28T09:13:47;2.00;;;1.60;;
21798;SDS011;24973;47.178;15.316;2022-09-28T09:16:57;1.87;;;1.50;;
21798;SDS011;24973;47.178;15.316;2022-09-28T09:19:57;1.53;;;1.37;;
21798;SDS011;24973;47.178;15.316;2022-09-28T09:23:00;2.63;;;1.60;;
21798;SDS011;24973;47.178;15.316;2022-09-28T09:25:58;2.30;;;1.77;;
21798;SDS011;24973;47.178;15.316;2022-09-28T09:29:01;4.07;;;1.73;;
21798;SDS011;24973;47.178;15.316;2022-09-28T09:32:19;3.93;;;2.03;;
21798;SDS011;24973;47.178;15.316;2022-09-28T09:35:39;4.00;;;1.77;;
21798;SDS011;24973;47.178;15.316;2022-09-28T09:39:02;3.07;;;1.83;;
21798;SDS011;24973;47.178;15.316;2022-09-28T09:42:11;2.50;;;1.47;;
21798;SDS011;24973;47.178;15.316;2022-09-28T09:45:22;3.80;;;1.80;;
21798;SDS011;24973;47.178;15.316;2022-09-28T09:48:24;2.77;;;1.87;;
21798;SDS011;24973;47.178;15.316;2022-09-28T09:51:19;1.83;;;1.67;;
21798;SDS011;24973;47.178;15.316;2022-09-28T09:54:20;2.33;;;1.63;;
21798;SDS011;24973;47.178;15.316;2022-09-28T09:57:14;3.57;;;1.63;;
21798;SDS011;24973;47.178;15.316;2022-09-28T10:00:09;1.60;;;1.50;;
21798;SDS011;24973;47.178;15.316;2022-09-28T10:03:01;1.20;;;1.10;;
21798;SDS011;24973;47.178;15.316;2022-09-28T10:05:53;1.30;;;1.17;;
21798;SDS011;24973;47.178;15.316;2022-09-28T10:08:47;0.80;;;0.77;;
21798;SDS011;24973;47.178;15.316;2022-09-28T10:11:42;1.93;;;1.00;;
21798;SDS011;24973;47.178;15.316;2022-09-28T10:14:35;1.40;;;1.00;;
21798;SDS011;24973;47.178;15.316;2022-09-28T10:17:25;1.60;;;1.27;;
21798;SDS011;24973;47.178;15.316;2022-09-28T10:20:14;1.57;;;1.30;;
21798;SDS011;24973;47.178;15.316;2022-09-28T10:23:04;1.90;;;1.37;;
21798;SDS011;24973;47.178;15.316;2022-09-28T10:26:01;1.63;;;1.00;;
21798;SDS011;24973;47.178;15.316;2022-09-28T10:28:56;1.37;;;1.27;;
21798;SDS011;24973;47.178;15.316;2022-09-28T10:31:49;4.90;;;1.57;;
21798;SDS011;24973;47.178;15.316;2022-09-28T10:34:39;3.33;;;2.13;;
21798;SDS011;24973;47.178;15.316;2022-09-28T10:37:28;2.60;;;2.10;;
21798;SDS011;24973;47.178;15.316;2022-09-28T10:40:28;3.60;;;3.10;;
21798;SDS011;24973;47.178;15.316;2022-09-28T10:43:26;6.80;;;3.87;;
21798;SDS011;24973;47.178;15.316;2022-09-28T10:46:20;5.37;;;3.60;;
21798;SDS011;24973;47.178;15.316;2022-09-28T10:49:11;3.57;;;2.60;;
21798;SDS011;24973;47.178;15.316;2022-09-28T10:52:04;7.03;;;3.30;;
21798;SDS011;24973;47.178;15.316;2022-09-28T10:55:27;7.43;;;3.20;;
21798;SDS011;24973;47.178;15.316;2022-09-28T10:58:23;3.77;;;3.37;;
21798;SDS011;24973;47.178;15.316;2022-09-28T11:01:15;7.83;;;3.97;;
21798;SDS011;24973;47.178;15.316;2022-09-28T11:04:12;4.57;;;2.90;;
21798;SDS011;24973;47.178;15.316;2022-09-28T11:07:12;3.67;;;2.83;;
21798;SDS011;24973;47.178;15.316;2022-09-28T11:10:05;2.83;;;2.60;;
21798;SDS011;24973;47.178;15.316;2022-09-28T11:13:07;6.33;;;3.10;;
21798;SDS011;24973;47.178;15.316;2022-09-28T11:15:56;6.37;;;3.00;;
21798;SDS011;24973;47.178;15.316;2022-09-28T11:18:47;6.40;;;3.10;;
21798;SDS011;24973;47.178;15.316;2022-09-28T11:24:02;4.20;;;3.30;;
21798;SDS011;24973;47.178;15.316;2022-09-28T11:26:53;4.77;;;3.03;;
21798;SDS011;24973;47.178;15.316;2022-09-28T11:29:50;3.00;;;2.70;;
21798;SDS011;24973;47.178;15.316;2022-09-28T11:32:42;5.63;;;2.67;;
21798;SDS011;24973;47.178;15.316;2022-09-28T11:35:41;5.47;;;2.93;;
21798;SDS011;24973;47.178;15.316;2022-09-28T11:38:39;3.37;;;3.07;;
21798;SDS011;24973;47.178;15.316;2022-09-28T11:41:37;4.13;;;2.93;;
21798;SDS011;24973;47.178;15.316;2022-09-28T11:44:43;6.03;;;2.63;;
21798;SDS011;24973;47.178;15.316;2022-09-28T11:47:46;2.57;;;2.37;;
21798;SDS011;24973;47.178;15.316;2022-09-28T11:50:44;2.50;;;2.17;;
21798;SDS011;24973;47.178;15.316;2022-09-28T11:53:35;5.30;;;2.47;;
21798;SDS011;24973;47.178;15.316;2022-09-28T11:56:31;4.00;;;2.20;;
21798;SDS011;24973;47.178;15.316;2022-09-28T11:59:24;6.00;;;1.97;;
21798;SDS011;24973;47.178;15.316;2022-09-28T12:02:19;2.67;;;2.47;;
21798;SDS011;24973;47.178;15.316;2022-09-28T12:05:12;2.50;;;2.30;;
21798;SDS011;24973;47.178;15.316;2022-09-28T12:08:12;3.17;;;2.43;;
21798;SDS011;24973;47.178;15.316;2022-09-28T12:11:08;1.93;;;1.83;;
21798;SDS011;24973;47.178;15.316;2022-09-28T12:14:03;2.77;;;1.87;;
21798;SDS011;24973;47.178;15.316;2022-09-28T12:17:00;3.80;;;2.10;;
21798;SDS011;24973;47.178;15.316;2022-09-28T12:19:58;2.10;;;1.53;;
21798;SDS011;24973;47.178;15.316;2022-09-28T12:23:00;4.87;;;2.30;;
21798;SDS011;24973;47.178;15.316;2022-09-28T12:25:56;2.83;;;2.07;;
21798;SDS011;24973;47.178;15.316;2022-09-28T12:28:47;1.63;;;1.53;;
21798;SDS011;24973;47.178;15.316;2022-09-28T12:31:46;1.77;;;1.67;;
21798;SDS011;24973;47.178;15.316;2022-09-28T12:34:45;2.17;;;1.97;;
21798;SDS011;24973;47.178;15.316;2022-09-28T12:37:37;2.00;;;1.90;;
21798;SDS011;24973;47.178;15.316;2022-09-28T12:40:44;2.03;;;1.80;;
21798;SDS011;24973;47.178;15.316;2022-09-28T12:43:46;6.90;;;2.00;;
21798;SDS011;24973;47.178;15.316;2022-09-28T12:47:04;3.90;;;1.70;;
21798;SDS011;24973;47.178;15.316;2022-09-28T12:50:27;1.93;;;1.60;;
21798;SDS011;24973;47.178;15.316;2022-09-28T12:56:47;1.60;;;1.50;;
21798;SDS011;24973;47.178;15.316;2022-09-28T12:59:51;3.87;;;1.57;;
21798;SDS011;24973;47.178;15.316;2022-09-28T13:02:54;7.73;;;3.00;;
21798;SDS011;24973;47.178;15.316;2022-09-28T13:06:31;4.80;;;1.57;;
21798;SDS011;24973;47.178;15.316;2022-09-28T13:09:37;3.40;;;1.77;;
21798;SDS011;24973;47.178;15.316;2022-09-28T13:12:42;1.83;;;1.67;;
21798;SDS011;24973;47.178;15.316;2022-09-28T13:15:49;8.47;;;1.40;;
21798;SDS011;24973;47.178;15.316;2022-09-28T13:18:47;3.00;;;1.57;;
21798;SDS011;24973;47.178;15.316;2022-09-28T13:21:45;2.40;;;1.53;;
21798;SDS011;24973;47.178;15.316;2022-09-28T13:24:43;1.80;;;1.50;;
21798;SDS011;24973;47.178;15.316;2022-09-28T13:27:34;2.00;;;1.73;;
21798;SDS011;24973;47.178;15.316;2022-09-28T13:30:28;2.00;;;1.80;;
21798;SDS011;24973;47.178;15.316;2022-09-28T13:33:24;1.50;;;1.40;;
21798;SDS011;24973;47.178;15.316;2022-09-28T13:36:35;2.60;;;1.70;;
21798;SDS011;24973;47.178;15.316;2022-09-28T13:42:41;1.50;;;1.40;;
21798;SDS011;24973;47.178;15.316;2022-09-28T13:45:49;1.90;;;1.70;;
21798;SDS011;24973;47.178;15.316;2022-09-28T13:48:44;3.90;;;1.90;;
21798;SDS011;24973;47.178;15.316;2022-09-28T13:51:42;2.07;;;1.40;;
21798;SDS011;24973;47.178;15.316;2022-09-28T13:54:55;2.00;;;1.67;;
21798;SDS011;24973;47.178;15.316;2022-09-28T13:58:05;2.13;;;1.90;;
21798;SDS011;24973;47.178;15.316;2022-09-28T14:01:05;3.27;;;1.80;;
21798;SDS011;24973;47.178;15.316;2022-09-28T14:04:11;4.80;;;1.87;;
21798;SDS011;24973;47.178;15.316;2022-09-28T14:07:08;1.93;;;1.70;;
21798;SDS011;24973;47.178;15.316;2022-09-28T14:10:17;3.63;;;1.80;;
21798;SDS011;24973;47.178;15.316;2022-09-28T14:13:10;3.47;;;1.60;;
21798;SDS011;24973;47.178;15.316;2022-09-28T14:19:13;2.43;;;1.63;;
21798;SDS011;24973;47.178;15.316;2022-09-28T14:22:09;1.53;;;1.43;;
21798;SDS011;24973;47.178;15.316;2022-09-28T14:25:08;1.57;;;1.17;;
21798;SDS011;24973;47.178;15.316;2022-09-28T14:28:11;2.77;;;1.83;;
21798;SDS011;24973;47.178;15.316;2022-09-28T14:31:24;3.53;;;1.67;;
21798;SDS011;24973;47.178;15.316;2022-09-28T14:34:35;1.77;;;1.67;;
21798;SDS011;24973;47.178;15.316;2022-09-28T14:37:27;2.07;;;1.87;;
21798;SDS011;24973;47.178;15.316;2022-09-28T14:40:52;2.70;;;1.87;;
21798;SDS011;24973;47.178;15.316;2022-09-28T14:44:03;1.53;;;1.43;;
21798;SDS011;24973;47.178;15.316;2022-09-28T14:46:57;1.97;;;1.87;;
21798;SDS011;24973;47.178;15.316;2022-09-28T14:50:21;1.97;;;1.87;;
21798;SDS011;24973;47.178;15.316;2022-09-28T14:53:12;2.10;;;1.87;;
21798;SDS011;24973;47.178;15.316;2022-09-28T14:56:06;2.10;;;1.57;;
21798;SDS011;24973;47.178;15.316;2022-09-28T14:58:56;1.90;;;1.67;;
21798;SDS011;24973;47.178;15.316;2022-09-28T15:01:46;2.77;;;1.47;;
21798;SDS011;24973;47.178;15.316;2022-09-28T15:04:44;17.63;;;12.07;;
21798;SDS011;24973;47.178;15.316;2022-09-28T15:07:44;7.13;;;6.33;;
21798;SDS011;24973;47.178;15.316;2022-09-28T15:10:35;5.90;;;4.67;;
21798;SDS011;24973;47.178;15.316;2022-09-28T15:13:28;6.57;;;5.10;;
21798;SDS011;24973;47.178;15.316;2022-09-28T15:16:20;4.07;;;3.53;;
21798;SDS011;24973;47.178;15.316;2022-09-28T15:19:13;5.03;;;3.83;;
21798;SDS011;24973;47.178;15.316;2022-09-28T15:22:14;5.07;;;3.53;;
21798;SDS011;24973;47.178;15.316;2022-09-28T15:25:11;6.40;;;3.00;;
21798;SDS011;24973;47.178;15.316;2022-09-28T15:28:12;4.50;;;3.33;;
21798;SDS011;24973;47.178;15.316;2022-09-28T15:31:14;5.30;;;3.97;;
21798;SDS011;24973;47.178;15.316;2022-09-28T15:34:10;6.17;;;2.63;;
21798;SDS011;24973;47.178;15.316;2022-09-28T15:37:31;1.83;;;1.73;;
21798;SDS011;24973;47.178;15.316;2022-09-28T15:40:28;2.17;;;1.97;;
21798;SDS011;24973;47.178;15.316;2022-09-28T15:43:27;1.60;;;1.50;;
21798;SDS011;24973;47.178;15.316;2022-09-28T15:46:18;2.57;;;2.10;;
21798;SDS011;24973;47.178;15.316;2022-09-28T15:49:16;2.00;;;1.87;;
21798;SDS011;24973;47.178;15.316;2022-09-28T15:52:22;10.83;;;5.70;;
21798;SDS011;24973;47.178;15.316;2022-09-28T15:55:19;6.10;;;4.50;;
21798;SDS011;24973;47.178;15.316;2022-09-28T15:58:15;3.47;;;2.40;;
21798;SDS011;24973;47.178;15.316;2022-09-28T16:04:36;2.97;;;2.20;;
21798;SDS011;24973;47.178;15.316;2022-09-28T16:07:36;2.83;;;2.23;;
21798;SDS011;24973;47.178;15.316;2022-09-28T16:10:28;3.97;;;2.33;;
21798;SDS011;24973;47.178;15.316;2022-09-28T16:13:22;4.33;;;4.03;;
21798;SDS011;24973;47.178;15.316;2022-09-28T16:16:12;2.53;;;2.33;;
21798;SDS011;24973;47.178;15.316;2022-09-28T16:19:03;4.63;;;3.57;;
21798;SDS011;24973;47.178;15.316;2022-09-28T16:21:53;2.50;;;2.30;;
21798;SDS011;24973;47.178;15.316;2022-09-28T16:24:52;3.93;;;3.40;;
21798;SDS011;24973;47.178;15.316;2022-09-28T16:27:44;4.90;;;2.90;;
21798;SDS011;24973;47.178;15.316;2022-09-28T16:30:34;3.20;;;2.10;;
21798;SDS011;24973;47.178;15.316;2022-09-28T16:33:25;2.97;;;2.47;;
21798;SDS011;24973;47.178;15.316;2022-09-28T16:36:18;3.17;;;2.27;;
21798;SDS011;24973;47.178;15.316;2022-09-28T16:39:08;4.73;;;2.40;;
21798;SDS011;24973;47.178;15.316;2022-09-28T16:41:58;2.90;;;2.03;;
21798;SDS011;24973;47.178;15.316;2022-09-28T16:44:49;3.53;;;2.70;;
21798;SDS011;24973;47.178;15.316;2022-09-28T16:47:39;3.23;;;2.33;;
21798;SDS011;24973;47.178;15.316;2022-09-28T16:50:28;2.67;;;2.33;;
21798;SDS011;24973;47.178;15.316;2022-09-28T16:53:16;3.80;;;2.73;;
21798;SDS011;24973;47.178;15.316;2022-09-28T16:56:37;2.77;;;2.53;;
21798;SDS011;24973;47.178;15.316;2022-09-28T16:59:26;5.00;;;3.70;;
21798;SDS011;24973;47.178;15.316;2022-09-28T17:02:16;4.10;;;3.33;;
21798;SDS011;24973;47.178;15.316;2022-09-28T17:05:33;2.80;;;2.10;;
21798;SDS011;24973;47.178;15.316;2022-09-28T17:08:25;2.67;;;2.47;;
21798;SDS011;24973;47.178;15.316;2022-09-28T17:11:14;4.77;;;2.90;;
21798;SDS011;24973;47.178;15.316;2022-09-28T17:14:09;3.23;;;2.20;;
21798;SDS011;24973;47.178;15.316;2022-09-28T17:16:58;3.13;;;2.40;;
21798;SDS011;24973;47.178;15.316;2022-09-28T17:19:53;3.07;;;2.40;;
21798;SDS011;24973;47.178;15.316;2022-09-28T17:22:43;2.20;;;1.83;;
21798;SDS011;24973;47.178;15.316;2022-09-28T17:25:32;2.60;;;1.97;;
21798;SDS011;24973;47.178;15.316;2022-09-28T17:28:23;2.80;;;2.07;;
21798;SDS011;24973;47.178;15.316;2022-09-28T17:31:20;2.50;;;2.30;;
21798;SDS011;24973;47.178;15.316;2022-09-28T17:34:10;2.80;;;2.20;;